Time;durP1;ratioP1;P1;durP2;ratioP2;P2;SDS_P1;SDS_P2;PMS_P1;PMS_P2;Temp;Humidity;BMP_temperature;BMP_pressure;BME280_temperature;BME280_humidity;BME280_pressure;Samples;Min_cycle;Max_cycle;Signal;HPM_P1;HPM_P2
2022/12/31 00:00:52;;;;;;;0.90;0.77;;;16.00;75.20;;;;;;4994489;28;20429;-57
2022/12/31 00:03:17;;;;;;;0.60;0.60;;;15.90;75.20;;;;;;4994606;28;20186;-58
2022/12/31 00:05:43;;;;;;;2.43;1.10;;;15.90;75.40;;;;;;4992963;28;20198;-58
2022/12/31 00:08:09;;;;;;;0.80;0.80;;;16.20;74.80;;;;;;4992805;28;20226;-58
2022/12/31 00:10:40;;;;;;;1.80;0.90;;;16.20;74.10;;;;;;4994203;28;20209;-57
2022/12/31 00:13:07;;;;;;;1.77;0.90;;;16.30;74.10;;;;;;4994104;28;20202;-58
2022/12/31 00:15:32;;;;;;;0.60;0.60;;;16.70;72.60;;;;;;4994152;28;21034;-57
2022/12/31 00:17:58;;;;;;;1.73;0.80;;;16.50;72.20;;;;;;4993795;28;20938;-58
2022/12/31 00:20:24;;;;;;;0.77;0.77;;;16.40;73.00;;;;;;5007069;28;20642;-58
2022/12/31 00:22:49;;;;;;;1.00;0.90;;;16.60;72.40;;;;;;4994236;28;20221;-58
2022/12/31 00:25:15;;;;;;;1.50;1.07;;;16.70;71.90;;;;;;4991616;28;20277;-58
2022/12/31 00:27:40;;;;;;;0.87;0.87;;;16.80;71.30;;;;;;4993888;28;20202;-58
2022/12/31 00:30:07;;;;;;;1.30;0.90;;;16.60;71.90;;;;;;4994089;28;20249;-58
2022/12/31 00:32:32;;;;;;;0.93;0.70;;;16.60;72.00;;;;;;4992517;28;20202;-58
2022/12/31 00:34:58;;;;;;;0.67;0.67;;;16.60;71.90;;;;;;4993742;28;20426;-58
2022/12/31 00:37:23;;;;;;;1.37;0.80;;;16.60;72.00;;;;;;4993669;28;20186;-58
2022/12/31 00:39:49;;;;;;;0.90;0.90;;;16.50;72.00;;;;;;4993707;28;20668;-58
2022/12/31 00:42:14;;;;;;;0.80;0.80;;;16.60;71.70;;;;;;4993879;28;20202;-57
2022/12/31 00:44:40;;;;;;;0.80;0.80;;;16.90;71.20;;;;;;4993758;28;20198;-58
2022/12/31 00:47:06;;;;;;;0.77;0.77;;;16.70;71.10;;;;;;4993126;28;20197;-58
2022/12/31 00:49:31;;;;;;;0.70;0.70;;;16.70;70.90;;;;;;4993322;28;20237;-58
2022/12/31 00:51:57;;;;;;;0.87;0.80;;;16.70;71.30;;;;;;4993582;28;20274;-58
2022/12/31 00:54:22;;;;;;;0.67;0.67;;;16.70;71.10;;;;;;4993475;28;20201;-58
2022/12/31 00:56:48;;;;;;;0.70;0.70;;;16.50;71.50;;;;;;4992239;28;20245;-57
2022/12/31 00:59:13;;;;;;;1.03;0.93;;;16.50;71.50;;;;;;4992492;28;20558;-58
2022/12/31 01:01:40;;;;;;;0.77;0.77;;;16.30;71.90;;;;;;4993537;28;20203;-58
2022/12/31 01:04:12;;;;;;;5.50;0.97;;;16.50;71.80;;;;;;4992173;28;20202;-58
2022/12/31 01:06:38;;;;;;;1.00;0.90;;;16.50;71.80;;;;;;4992990;28;20430;-58
2022/12/31 01:09:05;;;;;;;3.07;0.90;;;16.40;71.80;;;;;;4992955;28;20512;-58
2022/12/31 01:11:31;;;;;;;0.90;0.80;;;16.60;71.90;;;;;;4993005;28;20249;-58
2022/12/31 01:14:05;;;;;;;1.00;0.90;;;16.50;71.40;;;;;;4992973;28;20430;-58
2022/12/31 01:16:37;;;;;;;1.43;0.87;;;16.60;71.40;;;;;;4992339;28;20264;-58
2022/12/31 01:19:06;;;;;;;1.87;0.73;;;16.60;71.30;;;;;;5000938;28;20429;-58
2022/12/31 01:21:33;;;;;;;0.93;0.80;;;16.60;71.10;;;;;;4997488;28;20438;-57
2022/12/31 01:24:06;;;;;;;0.80;0.80;;;16.70;70.90;;;;;;5066853;28;20540;-57
2022/12/31 01:26:32;;;;;;;0.80;0.80;;;16.70;70.40;;;;;;5049106;28;20451;-57
2022/12/31 01:28:58;;;;;;;0.90;0.77;;;16.70;70.60;;;;;;5048617;28;20423;-57
2022/12/31 01:31:24;;;;;;;1.47;1.00;;;16.50;71.10;;;;;;5048351;28;20276;-57
2022/12/31 01:33:51;;;;;;;1.30;0.93;;;16.60;71.10;;;;;;5048247;28;20874;-57
2022/12/31 01:36:20;;;;;;;0.70;0.70;;;16.70;70.80;;;;;;5047814;28;20501;-57
2022/12/31 01:38:45;;;;;;;0.90;0.90;;;16.70;70.40;;;;;;5048134;28;20794;-57
2022/12/31 01:41:18;;;;;;;0.60;0.60;;;16.60;71.20;;;;;;5048145;28;20423;-57
2022/12/31 01:43:59;;;;;;;0.90;0.90;;;16.70;71.00;;;;;;5047974;28;20220;-57
2022/12/31 01:46:35;;;;;;;0.90;0.90;;;16.80;70.30;;;;;;5047610;28;20427;-57
2022/12/31 01:49:09;;;;;;;1.00;0.90;;;16.90;69.70;;;;;;5048012;28;20926;-58
2022/12/31 01:51:36;;;;;;;1.30;1.00;;;16.80;69.80;;;;;;5046340;28;20882;-57
2022/12/31 01:54:05;;;;;;;1.20;0.73;;;16.90;69.40;;;;;;5047892;28;20431;-57
2022/12/31 01:56:31;;;;;;;1.63;0.80;;;17.00;69.60;;;;;;5047793;28;20522;-57
2022/12/31 01:58:58;;;;;;;1.03;0.70;;;17.10;69.00;;;;;;5047710;28;20433;-57
2022/12/31 02:01:32;;;;;;;1.57;1.17;;;17.00;68.80;;;;;;5047687;28;20518;-57
2022/12/31 02:04:00;;;;;;;1.83;1.00;;;16.90;69.20;;;;;;5047468;28;20486;-57
2022/12/31 02:06:35;;;;;;;0.93;0.90;;;16.70;69.10;;;;;;5047255;28;20423;-57
2022/12/31 02:09:00;;;;;;;0.90;0.80;;;16.70;69.10;;;;;;5047584;28;20537;-57
2022/12/31 02:11:34;;;;;;;1.00;1.00;;;16.80;69.00;;;;;;5047471;28;20522;-57
2022/12/31 02:14:03;;;;;;;1.40;0.97;;;16.80;69.10;;;;;;5047451;28;20569;-57
2022/12/31 02:16:41;;;;;;;0.87;0.87;;;16.90;68.50;;;;;;5045568;28;20424;-57
2022/12/31 02:19:26;;;;;;;1.10;1.00;;;16.90;67.80;;;;;;5047417;28;20942;-57
2022/12/31 02:22:13;;;;;;;1.23;0.63;;;16.80;68.00;;;;;;5046994;28;20419;-57
2022/12/31 02:25:17;;;;;;;1.10;0.90;;;16.90;67.70;;;;;;5047180;28;20466;-57
2022/12/31 02:27:58;;;;;;;1.00;0.90;;;16.90;67.70;;;;;;5046969;28;20773;-57
2022/12/31 02:30:25;;;;;;;1.00;0.90;;;17.10;66.60;;;;;;5047088;28;20434;-57
2022/12/31 02:33:01;;;;;;;1.33;0.93;;;17.10;66.50;;;;;;5047155;28;20416;-57
2022/12/31 02:35:40;;;;;;;1.53;0.70;;;17.00;66.10;;;;;;5034046;28;20434;-57
2022/12/31 02:38:18;;;;;;;1.20;0.90;;;17.00;66.30;;;;;;5033472;28;20506;-57
2022/12/31 02:40:46;;;;;;;1.57;1.07;;;17.10;66.00;;;;;;5033870;28;20489;-58
2022/12/31 02:43:11;;;;;;;0.83;0.83;;;17.20;65.50;;;;;;5030744;28;20483;-57
2022/12/31 02:45:41;;;;;;;1.30;1.20;;;17.20;65.20;;;;;;5034037;28;20439;-57
2022/12/31 02:48:15;;;;;;;0.90;0.90;;;17.10;65.50;;;;;;5033864;28;20649;-57
2022/12/31 02:50:57;;;;;;;1.53;1.07;;;17.10;65.20;;;;;;5033638;28;20930;-57
2022/12/31 02:53:35;;;;;;;2.10;0.70;;;17.30;64.90;;;;;;5033669;28;20455;-57
2022/12/31 02:56:14;;;;;;;1.10;0.73;;;17.10;64.80;;;;;;5033217;28;20431;-57
2022/12/31 03:04:35;;;;;;;0.63;0.63;;;17.10;64.90;;;;;;5033632;28;20439;-57
2022/12/31 03:07:06;;;;;;;1.13;1.00;;;17.20;65.00;;;;;;5032906;28;20432;-57
2022/12/31 03:09:33;;;;;;;1.30;1.00;;;17.20;64.90;;;;;;5031506;28;20791;-58
2022/12/31 03:13:00;;;;;;;3.00;1.53;;;17.20;64.90;;;;;;5033297;28;20526;-57
2022/12/31 03:14:55;;;;;;;1.00;0.83;;;17.20;64.80;;;;;;5032436;28;20448;-57
2022/12/31 03:17:20;;;;;;;0.73;0.73;;;17.10;65.00;;;;;;5032781;28;20426;-57
2022/12/31 03:22:35;;;;;;;1.13;1.03;;;17.00;65.20;;;;;;5033075;28;20251;-57
2022/12/31 03:28:10;;;;;;;0.80;0.80;;;17.20;65.30;;;;;;5033015;28;20815;-57
2022/12/31 03:30:38;;;;;;;1.13;0.90;;;17.20;64.80;;;;;;5032940;28;20802;-57
2022/12/31 03:33:05;;;;;;;0.70;0.70;;;17.00;65.10;;;;;;5032831;28;20422;-57
2022/12/31 03:35:33;;;;;;;0.87;0.87;;;17.00;65.30;;;;;;5032780;28;20478;-57
2022/12/31 03:37:59;;;;;;;0.93;0.93;;;16.90;65.70;;;;;;5030541;28;20460;-57
2022/12/31 03:40:27;;;;;;;0.83;0.83;;;17.10;65.50;;;;;;5032640;28;20424;-57
2022/12/31 03:42:52;;;;;;;0.80;0.70;;;17.10;65.30;;;;;;5032387;28;20485;-57
2022/12/31 03:45:18;;;;;;;1.27;1.00;;;17.00;65.50;;;;;;5031775;28;20839;-57
2022/12/31 03:47:44;;;;;;;1.37;1.10;;;17.20;65.50;;;;;;5031722;28;20601;-58
2022/12/31 03:50:11;;;;;;;0.83;0.70;;;17.30;65.10;;;;;;5032542;28;20669;-57
2022/12/31 03:52:37;;;;;;;1.47;1.00;;;17.30;65.00;;;;;;5032186;28;20615;-57
2022/12/31 03:55:03;;;;;;;0.93;0.93;;;17.50;64.90;;;;;;5032345;28;20432;-57
2022/12/31 03:57:30;;;;;;;0.80;0.80;;;17.40;64.30;;;;;;5031901;28;20255;-57
2022/12/31 03:59:55;;;;;;;1.43;0.83;;;17.50;64.50;;;;;;5032226;28;20471;-57
2022/12/31 04:02:21;;;;;;;2.03;0.70;;;17.50;64.50;;;;;;5030876;28;20948;-57
2022/12/31 04:04:46;;;;;;;1.43;1.00;;;17.60;64.10;;;;;;5031896;28;20197;-57
2022/12/31 04:07:12;;;;;;;0.80;0.80;;;17.60;64.40;;;;;;5031868;28;20716;-57
2022/12/31 04:09:38;;;;;;;1.30;1.00;;;17.60;64.50;;;;;;5032143;28;20228;-57
2022/12/31 04:12:03;;;;;;;0.90;0.73;;;17.60;64.50;;;;;;5032034;28;20632;-57
2022/12/31 04:14:29;;;;;;;0.70;0.70;;;17.50;64.80;;;;;;5032037;28;20191;-57
2022/12/31 04:16:54;;;;;;;1.00;0.80;;;17.50;65.50;;;;;;5031480;28;20194;-57
2022/12/31 04:19:20;;;;;;;0.80;0.80;;;17.50;65.10;;;;;;5031962;28;20565;-57
2022/12/31 04:21:46;;;;;;;1.00;0.90;;;17.60;65.10;;;;;;5031608;28;20276;-58
2022/12/31 04:24:11;;;;;;;0.70;0.70;;;17.70;65.20;;;;;;5032012;28;20649;-58
2022/12/31 04:26:37;;;;;;;0.90;0.90;;;17.70;64.70;;;;;;5031280;28;20279;-58
2022/12/31 04:29:03;;;;;;;0.83;0.83;;;17.90;64.90;;;;;;5030109;28;20201;-58
2022/12/31 04:31:29;;;;;;;1.80;0.93;;;17.90;64.30;;;;;;5031830;28;20559;-58
2022/12/31 04:33:55;;;;;;;1.03;0.87;;;17.90;64.10;;;;;;5031720;28;20570;-58
2022/12/31 04:36:21;;;;;;;1.00;1.00;;;17.90;64.10;;;;;;5031032;28;20198;-58
2022/12/31 04:38:46;;;;;;;0.70;0.70;;;17.80;65.00;;;;;;5031531;28;20223;-58
2022/12/31 04:41:19;;;;;;;0.90;0.90;;;18.20;63.90;;;;;;5031784;28;20437;-58
2022/12/31 04:43:51;;;;;;;2.00;0.93;;;18.40;63.20;;;;;;5031415;28;20699;-58
2022/12/31 04:46:20;;;;;;;0.80;0.80;;;18.40;63.00;;;;;;5031073;28;20972;-58
2022/12/31 04:48:46;;;;;;;0.97;0.90;;;18.60;62.30;;;;;;5031647;28;20439;-58
2022/12/31 04:51:12;;;;;;;1.00;1.00;;;18.60;62.00;;;;;;5031518;28;20424;-58
2022/12/31 04:53:38;;;;;;;1.00;0.90;;;18.30;61.90;;;;;;5031470;28;20194;-58
2022/12/31 04:56:04;;;;;;;0.90;0.90;;;18.30;63.00;;;;;;5029232;28;20435;-58
2022/12/31 04:58:31;;;;;;;0.63;0.63;;;18.30;62.50;;;;;;5031046;28;20196;-58
2022/12/31 05:00:56;;;;;;;1.33;0.80;;;18.40;62.30;;;;;;5031198;28;20420;-58
2022/12/31 05:03:24;;;;;;;0.90;0.77;;;18.30;62.70;;;;;;5031123;28;20483;-58
2022/12/31 05:05:50;;;;;;;1.23;0.83;;;18.20;62.80;;;;;;5030554;28;20692;-58
2022/12/31 05:08:16;;;;;;;0.87;0.87;;;18.30;62.50;;;;;;5031080;28;20424;-58
2022/12/31 05:10:44;;;;;;;0.80;0.80;;;18.40;62.70;;;;;;5030936;28;20290;-58
2022/12/31 05:13:10;;;;;;;0.80;0.80;;;18.20;62.90;;;;;;5031155;28;20428;-58
2022/12/31 05:15:36;;;;;;;0.70;0.70;;;18.20;63.30;;;;;;5030535;28;20835;-58
2022/12/31 05:18:02;;;;;;;1.33;0.60;;;18.30;63.20;;;;;;5031009;28;20250;-58
2022/12/31 05:20:28;;;;;;;0.87;0.87;;;18.00;63.30;;;;;;5031049;28;20643;-58
2022/12/31 05:22:54;;;;;;;1.27;0.80;;;18.00;64.00;;;;;;5029394;28;20594;-58
2022/12/31 05:25:19;;;;;;;0.80;0.60;;;18.10;64.30;;;;;;5030916;28;20193;-58
2022/12/31 05:27:45;;;;;;;0.90;0.90;;;17.90;64.80;;;;;;5030565;28;20486;-58
2022/12/31 05:30:11;;;;;;;0.93;0.73;;;17.80;65.30;;;;;;5031046;28;20201;-58
2022/12/31 05:32:37;;;;;;;1.33;0.80;;;17.80;65.70;;;;;;5030947;28;20561;-58
2022/12/31 05:35:03;;;;;;;0.80;0.80;;;17.80;65.70;;;;;;5031131;28;20431;-58
2022/12/31 05:37:30;;;;;;;0.70;0.70;;;17.60;65.90;;;;;;5030781;28;20564;-58
2022/12/31 05:39:56;;;;;;;0.80;0.80;;;17.70;66.20;;;;;;5030939;28;20808;-58
2022/12/31 05:42:22;;;;;;;1.20;0.97;;;17.70;66.00;;;;;;5030975;28;20479;-58
2022/12/31 05:44:48;;;;;;;1.07;1.00;;;17.70;66.20;;;;;;5030934;28;20416;-58
2022/12/31 05:47:14;;;;;;;0.80;0.80;;;17.60;66.50;;;;;;5030504;28;20800;-58
2022/12/31 05:49:39;;;;;;;0.90;0.90;;;17.60;66.70;;;;;;5029451;28;20193;-58
2022/12/31 05:52:06;;;;;;;1.60;0.80;;;17.70;66.70;;;;;;5030851;28;20419;-58
2022/12/31 05:54:31;;;;;;;1.03;0.93;;;17.70;66.20;;;;;;5031094;28;20272;-58
2022/12/31 05:56:58;;;;;;;0.70;0.70;;;17.60;66.70;;;;;;5030407;28;20534;-58
2022/12/31 05:59:23;;;;;;;0.87;0.87;;;17.60;66.60;;;;;;5031042;28;20604;-58
2022/12/31 06:01:49;;;;;;;0.80;0.80;;;17.60;66.80;;;;;;5030735;28;20428;-57
2022/12/31 06:04:15;;;;;;;0.80;0.80;;;17.60;66.80;;;;;;5030801;28;20251;-58
2022/12/31 06:06:41;;;;;;;0.80;0.80;;;17.60;66.90;;;;;;5030810;28;20780;-58
2022/12/31 06:09:06;;;;;;;1.00;0.80;;;17.60;66.90;;;;;;5031551;28;20339;-58
2022/12/31 06:11:32;;;;;;;0.90;0.90;;;17.70;66.60;;;;;;5034475;28;20193;-58
2022/12/31 06:13:57;;;;;;;1.00;0.90;;;17.80;66.00;;;;;;5034251;28;20228;-59
2022/12/31 06:16:23;;;;;;;2.30;0.90;;;17.80;66.10;;;;;;5032412;28;20255;-57
2022/12/31 06:18:49;;;;;;;1.00;0.80;;;17.90;66.00;;;;;;5034200;28;20181;-58
2022/12/31 06:21:16;;;;;;;1.30;1.10;;;17.90;65.90;;;;;;5034352;28;20422;-58
2022/12/31 06:23:42;;;;;;;0.80;0.80;;;18.10;65.60;;;;;;5034307;28;20573;-58
2022/12/31 06:26:07;;;;;;;0.80;0.80;;;18.00;65.60;;;;;;5034016;28;20466;-58
2022/12/31 06:28:33;;;;;;;0.70;0.70;;;17.90;65.90;;;;;;5034009;28;20197;-58
2022/12/31 06:31:04;;;;;;;0.80;0.80;;;18.00;65.70;;;;;;5034258;28;20420;-58
2022/12/31 06:33:30;;;;;;;1.07;0.70;;;18.10;65.50;;;;;;5034240;28;20424;-58
2022/12/31 06:35:57;;;;;;;0.90;0.90;;;18.10;65.00;;;;;;5033607;28;21009;-58
2022/12/31 06:38:24;;;;;;;0.60;0.60;;;18.20;65.10;;;;;;5034126;28;20190;-58
2022/12/31 06:40:50;;;;;;;1.37;0.80;;;18.30;64.50;;;;;;5033911;28;20421;-58
2022/12/31 06:43:15;;;;;;;0.93;0.70;;;18.30;64.30;;;;;;5032187;28;20483;-58
2022/12/31 06:45:41;;;;;;;0.80;0.80;;;18.30;63.90;;;;;;5033650;28;20283;-59
2022/12/31 06:48:06;;;;;;;1.90;0.70;;;18.30;64.00;;;;;;5033967;28;20189;-58
2022/12/31 06:50:32;;;;;;;1.00;0.90;;;18.40;63.80;;;;;;5033967;28;20995;-58
2022/12/31 06:52:58;;;;;;;0.90;0.90;;;18.30;63.00;;;;;;5033815;28;20288;-58
2022/12/31 06:55:24;;;;;;;1.00;0.73;;;18.30;63.70;;;;;;5033262;28;20231;-58
2022/12/31 06:57:50;;;;;;;2.20;0.83;;;18.50;63.40;;;;;;5033611;28;20232;-58
2022/12/31 07:00:16;;;;;;;0.77;0.77;;;18.60;62.60;;;;;;5033449;28;20431;-58
2022/12/31 07:03:05;;;;;;;0.90;0.83;;;18.70;62.20;;;;;;5033604;28;20483;-58
2022/12/31 07:05:51;;;;;;;0.80;0.80;;;18.90;62.10;;;;;;5012765;28;20436;-58
2022/12/31 07:08:38;;;;;;;1.00;0.90;;;19.00;61.60;;;;;;5031726;28;20424;-58
2022/12/31 07:11:27;;;;;;;0.70;0.70;;;19.10;61.40;;;;;;5033323;28;20506;-58
2022/12/31 07:14:47;;;;;;;0.80;0.80;;;19.20;60.80;;;;;;5033342;28;20801;-58
2022/12/31 07:17:34;;;;;;;0.80;0.70;;;19.20;60.80;;;;;;4991278;28;20831;-58
2022/12/31 07:20:06;;;;;;;0.80;0.80;;;18.90;61.30;;;;;;4991339;28;20437;-58
2022/12/31 07:22:31;;;;;;;1.10;0.87;;;18.80;61.90;;;;;;5015022;28;20578;-58
2022/12/31 07:24:57;;;;;;;1.70;0.80;;;18.60;61.90;;;;;;5033083;28;20539;-58
2022/12/31 07:27:45;;;;;;;0.83;0.83;;;18.70;62.10;;;;;;5032580;28;20201;-58
2022/12/31 07:30:20;;;;;;;0.63;0.63;;;18.70;62.00;;;;;;5032985;28;20451;-58
2022/12/31 07:33:04;;;;;;;1.10;0.70;;;18.30;62.50;;;;;;5033087;28;20840;-58
2022/12/31 07:35:54;;;;;;;1.70;0.90;;;18.40;62.60;;;;;;5031343;28;20428;-58
2022/12/31 07:38:29;;;;;;;0.80;0.80;;;18.40;62.00;;;;;;5032640;28;20842;-58
2022/12/31 07:41:22;;;;;;;1.00;0.87;;;18.40;62.20;;;;;;5032843;28;20423;-58
2022/12/31 07:44:09;;;;;;;1.00;0.90;;;18.40;62.40;;;;;;5032807;28;20893;-58
2022/12/31 07:46:54;;;;;;;0.90;0.90;;;18.50;62.10;;;;;;5032283;28;20428;-58
2022/12/31 07:49:21;;;;;;;0.70;0.70;;;18.50;62.70;;;;;;5032568;28;20467;-58
2022/12/31 07:51:47;;;;;;;0.90;0.90;;;18.50;61.90;;;;;;5032805;28;20497;-58
2022/12/31 07:54:12;;;;;;;0.80;0.80;;;18.50;61.70;;;;;;5032771;28;20517;-58
2022/12/31 07:56:38;;;;;;;0.80;0.70;;;18.30;62.00;;;;;;5032596;28;20193;-58
2022/12/31 07:59:04;;;;;;;0.87;0.77;;;18.20;61.30;;;;;;5032344;28;20276;-58
2022/12/31 08:01:40;;;;;;;0.93;0.90;;;18.20;61.70;;;;;;5030767;28;20432;-58
2022/12/31 08:04:16;;;;;;;1.00;0.90;;;18.30;61.20;;;;;;5032529;28;20312;-58
2022/12/31 08:07:19;;;;;;;0.80;0.80;;;18.30;61.10;;;;;;5032196;28;20864;-58
2022/12/31 08:10:05;;;;;;;0.80;0.80;;;18.50;61.40;;;;;;5025609;28;20431;-58
2022/12/31 08:12:34;;;;;;;1.67;1.00;;;18.60;60.50;;;;;;5031755;28;20475;-58
2022/12/31 08:15:00;;;;;;;1.93;0.90;;;18.50;60.80;;;;;;5032287;28;20432;-58
2022/12/31 08:17:26;;;;;;;1.10;1.00;;;18.40;60.60;;;;;;5031622;28;20424;-58
2022/12/31 08:19:52;;;;;;;0.90;0.73;;;18.50;60.80;;;;;;5032230;28;20511;-58
2022/12/31 08:22:18;;;;;;;1.00;0.90;;;18.70;60.10;;;;;;5031921;28;20261;-58
2022/12/31 08:25:12;;;;;;;0.97;0.90;;;18.70;59.70;;;;;;5031941;28;20911;-58
2022/12/31 08:27:45;;;;;;;1.03;0.87;;;18.80;59.80;;;;;;5030356;28;20692;-58
2022/12/31 08:30:14;;;;;;;0.90;0.60;;;18.80;59.30;;;;;;5032094;28;20431;-58
2022/12/31 08:32:40;;;;;;;1.00;0.87;;;18.80;59.20;;;;;;5031533;28;20416;-58
2022/12/31 08:35:53;;;;;;;0.77;0.77;;;18.70;59.40;;;;;;5031426;28;20436;-58
2022/12/31 08:38:30;;;;;;;0.77;0.77;;;18.80;59.30;;;;;;4994852;28;20726;-58
2022/12/31 08:41:19;;;;;;;0.90;0.80;;;18.80;59.40;;;;;;5031616;28;20997;-58
2022/12/31 08:44:11;;;;;;;0.80;0.80;;;18.80;59.10;;;;;;5031621;28;20487;-58
2022/12/31 08:46:45;;;;;;;0.90;0.90;;;18.90;58.90;;;;;;5031290;28;20526;-58
2022/12/31 08:49:13;;;;;;;1.10;0.80;;;18.90;58.90;;;;;;5031818;28;20424;-58
2022/12/31 08:51:39;;;;;;;1.20;1.10;;;18.90;58.90;;;;;;5031703;28;20777;-58
2022/12/31 08:54:05;;;;;;;1.23;0.73;;;18.90;58.90;;;;;;5029593;28;20428;-58
2022/12/31 08:56:39;;;;;;;2.30;0.77;;;18.90;58.90;;;;;;5031071;28;20785;-58
2022/12/31 08:59:07;;;;;;;1.40;1.00;;;18.90;58.70;;;;;;5031223;28;20526;-58
2022/12/31 09:02:19;;;;;;;1.10;0.80;;;19.00;58.70;;;;;;5031612;28;20547;-58
2022/12/31 09:05:12;;;;;;;1.27;0.80;;;18.90;58.60;;;;;;4999630;28;20954;-58
2022/12/31 09:08:02;;;;;;;0.80;0.80;;;18.90;58.70;;;;;;5031367;28;20765;-58
2022/12/31 09:10:32;;;;;;;1.20;0.80;;;18.90;58.60;;;;;;5031492;28;20800;-58
2022/12/31 09:13:48;;;;;;;0.80;0.80;;;18.90;58.80;;;;;;5031174;28;20432;-58
2022/12/31 09:16:29;;;;;;;0.80;0.80;;;18.90;58.80;;;;;;5013219;28;20531;-58
2022/12/31 09:18:54;;;;;;;1.53;0.80;;;18.90;58.70;;;;;;5030912;28;20852;-58
2022/12/31 09:21:20;;;;;;;1.63;0.90;;;18.90;58.60;;;;;;5029621;28;20428;-58
2022/12/31 09:23:46;;;;;;;1.33;0.80;;;18.90;58.50;;;;;;5031084;28;20636;-58
2022/12/31 09:26:27;;;;;;;0.73;0.73;;;19.00;58.60;;;;;;5030681;28;20247;-58
2022/12/31 09:29:13;;;;;;;1.70;1.00;;;19.10;58.10;;;;;;5031065;28;20220;-58
2022/12/31 09:32:10;;;;;;;1.67;1.00;;;19.30;58.10;;;;;;5030860;28;20815;-58
2022/12/31 09:35:02;;;;;;;1.10;1.00;;;19.40;57.50;;;;;;4994698;28;20510;-58
2022/12/31 09:37:44;;;;;;;1.03;0.90;;;19.50;57.60;;;;;;5030700;28;20440;-58
2022/12/31 09:40:49;;;;;;;1.17;0.83;;;19.60;57.00;;;;;;5030968;28;20431;-58
2022/12/31 09:43:39;;;;;;;0.77;0.77;;;19.60;56.30;;;;;;5028959;28;20495;-58
2022/12/31 09:46:38;;;;;;;1.00;1.00;;;19.80;56.10;;;;;;5034344;28;20424;-58
2022/12/31 09:49:29;;;;;;;0.70;0.70;;;19.90;55.70;;;;;;5033512;28;20435;-58
2022/12/31 09:52:13;;;;;;;3.70;0.90;;;20.00;55.80;;;;;;5034739;28;20826;-58
2022/12/31 09:55:04;;;;;;;0.70;0.70;;;20.00;55.20;;;;;;5034657;28;20518;-58
2022/12/31 09:57:40;;;;;;;0.80;0.77;;;20.10;54.90;;;;;;5034507;28;20480;-58
2022/12/31 10:00:11;;;;;;;1.03;1.00;;;20.20;55.10;;;;;;5034471;28;20970;-58
2022/12/31 10:03:14;;;;;;;0.97;0.93;;;20.20;54.50;;;;;;5034423;28;20504;-58
2022/12/31 10:05:42;;;;;;;0.70;0.70;;;20.50;54.70;;;;;;5033555;28;20432;-58
2022/12/31 10:08:17;;;;;;;1.97;0.93;;;20.40;53.80;;;;;;5034828;28;20868;-58
2022/12/31 10:10:53;;;;;;;1.37;1.00;;;20.60;54.20;;;;;;5034666;28;20922;-58
2022/12/31 10:13:31;;;;;;;1.00;1.00;;;20.80;53.60;;;;;;5033280;28;20534;-58
2022/12/31 10:16:35;;;;;;;1.10;1.00;;;20.80;52.80;;;;;;5034140;28;20925;-58
2022/12/31 10:19:32;;;;;;;0.80;0.70;;;20.90;53.20;;;;;;5028551;28;20432;-58
2022/12/31 10:22:21;;;;;;;0.90;0.80;;;20.90;52.90;;;;;;5034234;28;20525;-58
2022/12/31 10:24:54;;;;;;;1.10;1.00;;;20.90;52.20;;;;;;5033966;28;20799;-59
2022/12/31 10:27:34;;;;;;;2.63;0.93;;;20.90;52.40;;;;;;5033987;28;20438;-58
2022/12/31 10:30:19;;;;;;;0.83;0.83;;;21.00;52.00;;;;;;5033999;28;20934;-58
2022/12/31 10:33:20;;;;;;;1.80;0.70;;;21.10;52.30;;;;;;5033840;28;20458;-58
2022/12/31 10:36:26;;;;;;;1.07;0.90;;;21.20;51.80;;;;;;5033553;28;20434;-58
2022/12/31 10:39:10;;;;;;;1.00;0.83;;;21.10;51.00;;;;;;5033804;28;20518;-58
2022/12/31 10:42:20;;;;;;;1.20;1.00;;;20.90;51.60;;;;;;5032258;28;20424;-59
2022/12/31 10:44:46;;;;;;;1.20;0.70;;;;;;;;;;5033740;28;20492;-59
2022/12/31 10:47:32;;;;;;;0.80;0.80;;;21.50;50.70;;;;;;5033525;28;20552;-59
2022/12/31 10:50:32;;;;;;;0.83;0.80;;;21.80;50.30;;;;;;5033534;28;20462;-59
2022/12/31 10:53:20;;;;;;;1.57;0.70;;;22.10;50.20;;;;;;5033783;28;20427;-59
2022/12/31 10:56:10;;;;;;;2.23;0.70;;;22.00;49.10;;;;;;5032572;28;20519;-59
2022/12/31 10:59:10;;;;;;;1.47;0.70;;;21.90;49.90;;;;;;5033395;28;20420;-60
2022/12/31 11:01:53;;;;;;;1.00;0.90;;;22.20;49.30;;;;;;5033288;28;20840;-59
2022/12/31 11:04:50;;;;;;;1.43;0.90;;;22.30;48.80;;;;;;5033251;28;20537;-59
2022/12/31 11:07:49;;;;;;;1.30;0.90;;;22.60;48.90;;;;;;5010369;28;20451;-59
2022/12/31 11:10:41;;;;;;;2.73;1.00;;;22.60;48.00;;;;;;5033090;28;20789;-59
2022/12/31 11:13:28;;;;;;;1.00;0.90;;;22.30;48.20;;;;;;5033216;28;20515;-59
2022/12/31 11:16:16;;;;;;;1.50;0.80;;;22.20;48.40;;;;;;5032765;28;20519;-59
2022/12/31 11:19:09;;;;;;;0.63;0.63;;;22.30;48.90;;;;;;5033164;28;20424;-59
2022/12/31 11:22:02;;;;;;;0.80;0.77;;;22.50;48.50;;;;;;5032826;28;20439;-59
2022/12/31 11:25:05;;;;;;;1.00;0.90;;;22.50;48.00;;;;;;5033230;28;20456;-59
2022/12/31 11:27:49;;;;;;;0.80;0.80;;;22.60;48.20;;;;;;5023861;28;20436;-58
2022/12/31 11:30:35;;;;;;;1.20;1.10;;;22.60;47.90;;;;;;5052823;28;20423;-58
2022/12/31 11:33:38;;;;;;;0.80;0.80;;;22.40;47.90;;;;;;5051515;28;20910;-59
2022/12/31 11:36:27;;;;;;;0.87;0.50;;;21.80;48.00;;;;;;5052304;28;20438;-59
2022/12/31 11:39:20;;;;;;;1.23;0.70;;;21.70;48.70;;;;;;5052575;28;20800;-58
2022/12/31 11:41:51;;;;;;;0.80;0.80;;;21.70;48.60;;;;;;5052537;28;20927;-59
2022/12/31 11:44:33;;;;;;;1.10;0.80;;;21.60;48.60;;;;;;5052576;28;20552;-59
2022/12/31 11:47:20;;;;;;;1.13;0.63;;;21.70;48.70;;;;;;5052644;28;20440;-59
2022/12/31 11:49:56;;;;;;;1.43;0.70;;;21.80;48.40;;;;;;5052476;28;20463;-59
2022/12/31 11:52:46;;;;;;;1.90;0.80;;;21.70;48.30;;;;;;5052345;28;20438;-59
2022/12/31 11:55:11;;;;;;;1.00;0.80;;;22.00;48.60;;;;;;5051978;28;20462;-59
2022/12/31 11:57:40;;;;;;;0.90;0.80;;;22.10;48.10;;;;;;5052432;28;20428;-59
2022/12/31 12:00:21;;;;;;;0.73;0.70;;;22.10;47.80;;;;;;5050689;28;20197;-59
2022/12/31 12:02:50;;;;;;;1.13;0.80;;;22.30;48.00;;;;;;5052138;28;20490;-59
2022/12/31 12:05:19;;;;;;;1.10;1.00;;;22.40;47.90;;;;;;5051629;28;20448;-59
2022/12/31 12:07:45;;;;;;;0.87;0.87;;;22.20;47.40;;;;;;5051339;28;20469;-59
2022/12/31 12:10:38;;;;;;;3.33;0.90;;;22.20;47.60;;;;;;5052100;28;20966;-58
2022/12/31 12:13:18;;;;;;;0.87;0.67;;;22.20;47.60;;;;;;5052267;28;20466;-59
2022/12/31 12:15:59;;;;;;;0.80;0.70;;;22.40;47.50;;;;;;5051759;28;20427;-59
2022/12/31 12:18:44;;;;;;;0.83;0.83;;;22.60;47.80;;;;;;5049223;28;20415;-59
2022/12/31 12:21:20;;;;;;;1.50;1.13;;;22.80;47.40;;;;;;5032045;28;20848;-59
2022/12/31 12:23:58;;;;;;;0.80;0.70;;;22.80;46.80;;;;;;5031633;28;21014;-59
2022/12/31 12:26:40;;;;;;;0.90;0.70;;;22.90;47.20;;;;;;5029614;28;20439;-59
2022/12/31 12:29:14;;;;;;;5.53;1.20;;;22.90;46.80;;;;;;5031689;28;20760;-59
2022/12/31 12:31:39;;;;;;;6.00;0.90;;;22.90;46.30;;;;;;5031760;28;20440;-58
2022/12/31 12:34:19;;;;;;;0.80;0.80;;;22.70;46.90;;;;;;5031747;28;20427;-59
2022/12/31 12:36:46;;;;;;;1.43;0.80;;;22.70;46.70;;;;;;5031046;28;20280;-59
2022/12/31 12:39:20;;;;;;;1.10;0.90;;;22.70;47.00;;;;;;5031587;28;20420;-59
2022/12/31 12:41:46;;;;;;;0.70;0.70;;;22.50;46.80;;;;;;5031627;28;20783;-59
2022/12/31 12:44:15;;;;;;;0.67;0.67;;;22.60;47.30;;;;;;5031430;28;20475;-59
2022/12/31 12:46:47;;;;;;;0.70;0.70;;;22.60;46.80;;;;;;5031065;28;20251;-59
2022/12/31 12:49:22;;;;;;;1.10;1.00;;;22.70;46.90;;;;;;5031476;28;20523;-59
2022/12/31 12:52:08;;;;;;;0.83;0.80;;;22.70;46.90;;;;;;5031555;28;20427;-59
2022/12/31 12:54:37;;;;;;;0.77;0.70;;;22.60;46.70;;;;;;5030149;28;20531;-58
2022/12/31 12:57:23;;;;;;;2.30;1.00;;;22.70;47.10;;;;;;5030899;28;20794;-59
2022/12/31 13:00:21;;;;;;;1.10;0.67;;;22.90;46.70;;;;;;5031582;28;20967;-59
2022/12/31 13:03:19;;;;;;;1.30;0.90;;;22.60;46.70;;;;;;5031260;28;20479;-59
2022/12/31 13:06:22;;;;;;;0.80;0.80;;;22.80;47.20;;;;;;5030950;28;20499;-59
2022/12/31 13:09:14;;;;;;;9.57;1.00;;;23.00;46.70;;;;;;5024579;28;20808;-59
2022/12/31 13:11:42;;;;;;;0.70;0.70;;;23.10;46.30;;;;;;5031418;28;20794;-59
2022/12/31 13:14:26;;;;;;;0.87;0.87;;;23.10;46.10;;;;;;5031320;28;20435;-59
2022/12/31 13:17:07;;;;;;;1.10;0.83;;;23.20;46.00;;;;;;5030604;28;20523;-59
2022/12/31 13:19:52;;;;;;;2.00;0.80;;;23.00;45.80;;;;;;5029259;28;21073;-59
2022/12/31 13:22:36;;;;;;;0.80;0.70;;;23.20;46.00;;;;;;5030666;28;20891;-59
2022/12/31 13:25:17;;;;;;;2.93;1.00;;;23.10;45.90;;;;;;5030464;28;20436;-59
2022/12/31 13:27:45;;;;;;;1.53;0.80;;;23.00;45.30;;;;;;5031213;28;20443;-59
2022/12/31 13:30:30;;;;;;;1.13;0.87;;;22.90;45.80;;;;;;5031147;28;20443;-59
2022/12/31 13:33:05;;;;;;;1.30;1.20;;;23.20;45.80;;;;;;5030900;28;20919;-59
2022/12/31 13:35:43;;;;;;;1.10;1.00;;;23.30;46.10;;;;;;5030691;28;20535;-59
2022/12/31 13:38:27;;;;;;;2.23;1.20;;;23.60;45.70;;;;;;5030980;28;20439;-59